Airfield :
LOGIN :

Register | Disclaimer

   EN    FR    IT 

 










Legend :    VFR   Marginal VFR   IFR   Intensive IFR   Very Intensive IFR
Visi :
Ceiling :
>= 8 km
>= 3000ft
5 to 8 km
1000 to 3000 ft
1500m to 5 km
500 to 1000 ft
800 to 1500m
200 to 500 ft
< 800m
< 200 ft
Symbols :   Thunderstorms  Fog  Heavy snow  Heavy precipitations  Wind > 20 kt
SIGMETs :     Misc.  Thunderstorms  Icing  Turbulence  Mountain Waves  Volcanic Ashes







- Airport Elevation : 364 ft
- IATA code : FRA


EDDF - Frankfurt Int.

CURRENT METAR :
  • 222350Z 30010G20KT 270V340 CAVOK 24/15 Q1012 NOSIG

EXPIRED METARs :
  • 222320Z 30008KT 270V350 CAVOK 25/17 Q1011 NOSIG
  • 222250Z VRB02KT CAVOK 23/18 Q1011 NOSIG
  • 222220Z 23004KT CAVOK 23/19 Q1011 NOSIG
  • 222150Z VRB03KT CAVOK 23/18 Q1010 NOSIG
  • 222120Z VRB02KT CAVOK 24/18 Q1010 NOSIG

TAF TAF EDDF
Valid from the 23 at 00:00 until the 24 at 06:00 UTC


222300Z 2300/2406 27008KT CAVOK
TEMPO 2311/2320 28015G25KT
No reported NOTAMs for that airfield.



MET'MAP, your aeronautical weather chart ! - Copyright ORBIFLY December 2007 - Disclaimer

ORBIFLY MET'MAP TEAM :

Programming & Development : Alexandra Zaïnal
Concept & Development : Baudouin d'Aumeries
Co-Development & Prog : Marc-Olivier Méhu
Technical & hardware support : Manuel Goepfert

Contact : metmap@orbifly.com




SOURCES & CREDITS :

   NOAA